Time;durP1;ratioP1;P1;durP2;ratioP2;P2;SDS_P1;SDS_P2;PMS_P1;PMS_P2;Temp;Humidity;BMP_temperature;BMP_pressure;BME280_temperature;BME280_humidity;BME280_pressure;Samples;Min_cycle;Max_cycle;Signal;HPM_P1;HPM_P2
2023/09/07 00:03:01;;;;;;;6.90;4.80;;;;;;;;;;4920304;29;20213;-84
2023/09/07 00:06:05;;;;;;;7.77;4.80;;;;;;;;;;4920111;29;20185;-84
2023/09/07 00:09:11;;;;;;;5.17;4.10;;;;;;;;;;4918928;29;20524;-84
2023/09/07 00:12:15;;;;;;;6.07;4.40;;;;;;;;;;4908334;29;20216;-84
2023/09/07 00:15:21;;;;;;;5.10;4.60;;;;;;;;;;4920492;29;20177;-84
2023/09/07 00:18:25;;;;;;;7.13;4.60;;;;;;;;;;4918941;29;20193;-83
2023/09/07 00:21:30;;;;;;;5.53;4.70;;;;;;;;;;4908279;29;20209;-83
2023/09/07 00:24:34;;;;;;;6.97;4.80;;;;;;;;;;4918969;29;20185;-83
2023/09/07 00:27:38;;;;;;;8.33;4.90;;;;;;;;;;4908571;29;20635;-83
2023/09/07 00:30:42;;;;;;;6.03;4.37;;;;;;;;;;4919362;29;20639;-83
2023/09/07 00:33:46;;;;;;;6.60;4.43;;;;;;;;;;4920586;29;20224;-83
2023/09/07 00:36:50;;;;;;;5.10;4.60;;;;;;;;;;4924183;29;20188;-84
2023/09/07 00:39:54;;;;;;;6.43;5.40;;;;;;;;;;4912363;29;20189;-86
2023/09/07 00:42:59;;;;;;;8.27;4.90;;;;;;;;;;4923064;29;20236;-83
2023/09/07 00:46:03;;;;;;;5.47;4.20;;;;;;;;;;4912162;29;20189;-83
2023/09/07 00:49:07;;;;;;;5.17;4.67;;;;;;;;;;4923214;29;20642;-83
2023/09/07 00:52:11;;;;;;;7.30;4.83;;;;;;;;;;4923598;29;20693;-83
2023/09/07 00:55:17;;;;;;;9.87;5.70;;;;;;;;;;4912288;29;20189;-84
2023/09/07 00:58:21;;;;;;;6.10;5.50;;;;;;;;;;4924013;29;20185;-83
2023/09/07 01:01:26;;;;;;;6.47;5.37;;;;;;;;;;4922805;29;20208;-84
2023/09/07 01:04:30;;;;;;;8.53;5.93;;;;;;;;;;4912189;29;20188;-83
2023/09/07 01:07:43;;;;;;;6.10;5.17;;;;;;;;;;4911532;29;20180;-84
2023/09/07 01:10:47;;;;;;;7.73;5.83;;;;;;;;;;4922785;29;20177;-83
2023/09/07 01:13:53;;;;;;;7.03;5.30;;;;;;;;;;4911975;29;20220;-84
2023/09/07 01:16:58;;;;;;;6.10;5.00;;;;;;;;;;4923688;29;20181;-83
2023/09/07 01:20:09;;;;;;;8.80;5.53;;;;;;;;;;4912575;29;20185;-84
2023/09/07 01:23:14;;;;;;;6.13;5.03;;;;;;;;;;4912130;29;20236;-84
2023/09/07 01:26:17;;;;;;;5.70;4.73;;;;;;;;;;4923048;29;20189;-84
2023/09/07 01:29:21;;;;;;;8.57;5.20;;;;;;;;;;4923242;29;20185;-83
2023/09/07 01:32:26;;;;;;;8.90;5.27;;;;;;;;;;4912081;29;20220;-83
2023/09/07 01:35:33;;;;;;;9.77;4.80;;;;;;;;;;4911572;29;20181;-83
2023/09/07 01:38:37;;;;;;;5.33;4.73;;;;;;;;;;4911530;29;20192;-83
2023/09/07 01:41:42;;;;;;;5.93;4.43;;;;;;;;;;4922602;29;20221;-83
2023/09/07 01:44:46;;;;;;;6.93;4.73;;;;;;;;;;4912510;29;20185;-83
2023/09/07 01:47:51;;;;;;;5.17;4.67;;;;;;;;;;4900867;29;20532;-83
2023/09/07 01:50:56;;;;;;;5.30;4.53;;;;;;;;;;4923022;29;20630;-83
2023/09/07 01:54:00;;;;;;;5.90;5.23;;;;;;;;;;4911238;29;20217;-83
2023/09/07 01:57:04;;;;;;;7.50;4.93;;;;;;;;;;4922356;29;20192;-83
2023/09/07 02:00:10;;;;;;;5.87;5.10;;;;;;;;;;4922435;29;20188;-83
2023/09/07 02:03:17;;;;;;;10.10;4.90;;;;;;;;;;4921478;29;20232;-84
2023/09/07 02:06:21;;;;;;;13.40;5.73;;;;;;;;;;4922349;29;20643;-83
2023/09/07 02:09:25;;;;;;;6.87;4.60;;;;;;;;;;4922749;29;20185;-83
2023/09/07 02:12:29;;;;;;;11.53;5.03;;;;;;;;;;4922988;29;20216;-83
2023/09/07 02:15:40;;;;;;;5.20;4.30;;;;;;;;;;4922600;29;20528;-86
2023/09/07 02:18:46;;;;;;;4.90;4.50;;;;;;;;;;4922357;29;20548;-83
2023/09/07 02:21:52;;;;;;;11.53;5.17;;;;;;;;;;4922274;29;20212;-83
2023/09/07 02:24:57;;;;;;;5.20;4.70;;;;;;;;;;4922401;29;20185;-83
2023/09/07 02:28:01;;;;;;;7.33;5.50;;;;;;;;;;4921919;29;20193;-84
2023/09/07 02:31:06;;;;;;;7.83;5.40;;;;;;;;;;4900232;29;20192;-83
2023/09/07 02:34:10;;;;;;;7.03;5.33;;;;;;;;;;4910854;29;20690;-83
2023/09/07 02:37:16;;;;;;;8.33;4.90;;;;;;;;;;4910953;29;20189;-83
2023/09/07 02:40:20;;;;;;;5.77;4.80;;;;;;;;;;4921806;29;20185;-83
2023/09/07 02:43:24;;;;;;;7.03;4.90;;;;;;;;;;4910969;29;20237;-83
2023/09/07 02:46:28;;;;;;;5.80;4.97;;;;;;;;;;4921987;29;20189;-83
2023/09/07 02:49:33;;;;;;;6.80;4.63;;;;;;;;;;4921532;29;20189;-83
2023/09/07 02:52:37;;;;;;;6.10;5.37;;;;;;;;;;4910716;29;20559;-83
2023/09/07 02:55:42;;;;;;;9.33;5.77;;;;;;;;;;4922106;29;20185;-83
2023/09/07 02:58:46;;;;;;;7.30;5.83;;;;;;;;;;4921678;29;20180;-84
2023/09/07 03:01:50;;;;;;;8.10;5.70;;;;;;;;;;4921777;29;20208;-83
2023/09/07 03:04:58;;;;;;;7.30;5.27;;;;;;;;;;4910903;29;20185;-84
2023/09/07 03:08:03;;;;;;;6.23;5.47;;;;;;;;;;4910279;29;20181;-83
2023/09/07 03:11:09;;;;;;;6.30;5.47;;;;;;;;;;4910769;29;20184;-83
2023/09/07 03:14:13;;;;;;;8.87;5.57;;;;;;;;;;4921231;29;20220;-83
2023/09/07 03:17:18;;;;;;;5.97;5.37;;;;;;;;;;4899816;29;20189;-83
2023/09/07 03:20:23;;;;;;;6.07;5.50;;;;;;;;;;4909099;29;20536;-86
2023/09/07 03:23:30;;;;;;;8.20;6.00;;;;;;;;;;4909517;29;20237;-84
2023/09/07 03:26:35;;;;;;;7.87;6.30;;;;;;;;;;4920404;29;20185;-83
2023/09/07 03:29:39;;;;;;;5.90;5.30;;;;;;;;;;4909659;29;20185;-83
2023/09/07 03:32:43;;;;;;;6.37;5.77;;;;;;;;;;4919289;29;20251;-86
2023/09/07 03:35:47;;;;;;;6.97;6.00;;;;;;;;;;4908932;29;20189;-85
2023/09/07 03:38:52;;;;;;;7.80;6.10;;;;;;;;;;4920013;29;20180;-85
2023/09/07 03:41:56;;;;;;;11.50;7.07;;;;;;;;;;4909915;29;20181;-86
2023/09/07 03:45:01;;;;;;;10.23;6.87;;;;;;;;;;4920911;29;20642;-85
2023/09/07 03:48:06;;;;;;;8.43;6.23;;;;;;;;;;4908500;29;20181;-85
2023/09/07 03:51:11;;;;;;;7.83;6.33;;;;;;;;;;4920377;29;20185;-85
2023/09/07 03:54:15;;;;;;;7.70;6.43;;;;;;;;;;4920883;29;20185;-85
2023/09/07 03:57:20;;;;;;;6.77;6.07;;;;;;;;;;4920329;29;20189;-86
2023/09/07 04:00:24;;;;;;;7.27;6.57;;;;;;;;;;4909553;29;20189;-85
2023/09/07 04:03:28;;;;;;;13.57;7.40;;;;;;;;;;4898328;29;20265;-85
2023/09/07 04:06:32;;;;;;;8.00;6.07;;;;;;;;;;4908881;29;20181;-85
2023/09/07 04:09:36;;;;;;;7.40;5.83;;;;;;;;;;4919137;29;20193;-85
2023/09/07 04:12:40;;;;;;;6.17;5.57;;;;;;;;;;4897983;29;20563;-85
2023/09/07 04:15:45;;;;;;;15.10;6.17;;;;;;;;;;4908921;29;20185;-85
2023/09/07 04:18:49;;;;;;;6.67;5.47;;;;;;;;;;4920021;29;20185;-85
2023/09/07 04:21:54;;;;;;;7.37;5.67;;;;;;;;;;4919555;29;20189;-85
2023/09/07 04:24:58;;;;;;;6.50;5.80;;;;;;;;;;4919483;29;20181;-86
2023/09/07 04:28:02;;;;;;;6.60;6.00;;;;;;;;;;4898283;29;20532;-85
2023/09/07 04:31:07;;;;;;;8.60;5.13;;;;;;;;;;4909326;29;20196;-85
2023/09/07 04:34:11;;;;;;;7.20;5.33;;;;;;;;;;4919949;29;20220;-85
2023/09/07 04:37:15;;;;;;;7.07;5.13;;;;;;;;;;4909217;29;20184;-85
2023/09/07 04:40:20;;;;;;;8.87;5.93;;;;;;;;;;4919401;29;20185;-85
2023/09/07 04:43:24;;;;;;;6.13;5.53;;;;;;;;;;4919307;29;20224;-85
2023/09/07 04:46:28;;;;;;;7.23;6.20;;;;;;;;;;4920229;29;20189;-85
2023/09/07 04:49:33;;;;;;;8.67;5.47;;;;;;;;;;4908441;29;20177;-85
2023/09/07 04:52:37;;;;;;;11.20;6.10;;;;;;;;;;4919626;29;20291;-85
2023/09/07 04:55:42;;;;;;;6.53;5.30;;;;;;;;;;4919820;29;20185;-86
2023/09/07 04:58:46;;;;;;;7.80;6.27;;;;;;;;;;4909627;29;20185;-86
2023/09/07 05:01:50;;;;;;;7.73;6.37;;;;;;;;;;4909576;29;20185;-86
2023/09/07 05:04:54;;;;;;;6.27;5.50;;;;;;;;;;4895517;29;20686;-86
2023/09/07 05:07:58;;;;;;;7.70;5.83;;;;;;;;;;4908416;29;20189;-86
2023/09/07 05:11:03;;;;;;;7.37;5.40;;;;;;;;;;4918818;29;20535;-86
2023/09/07 05:14:07;;;;;;;5.87;5.23;;;;;;;;;;4918831;29;20586;-86
2023/09/07 05:17:12;;;;;;;9.50;6.10;;;;;;;;;;4919685;29;20535;-86
2023/09/07 05:20:16;;;;;;;6.07;5.47;;;;;;;;;;4920220;29;20189;-86
2023/09/07 05:23:22;;;;;;;6.13;5.53;;;;;;;;;;4901423;29;20698;-86
2023/09/07 05:26:26;;;;;;;8.77;6.03;;;;;;;;;;4913287;29;20189;-86
2023/09/07 05:29:31;;;;;;;15.20;5.60;;;;;;;;;;4902270;29;20523;-86
2023/09/07 05:32:36;;;;;;;15.07;6.40;;;;;;;;;;4911098;29;20682;-84
2023/09/07 05:35:45;;;;;;;16.73;6.67;;;;;;;;;;4935741;29;20554;-88
2023/09/07 05:38:50;;;;;;;18.93;6.70;;;;;;;;;;4930756;29;20180;-86
2023/09/07 05:41:54;;;;;;;16.30;6.33;;;;;;;;;;4940289;29;20188;-86
2023/09/07 05:44:58;;;;;;;12.60;6.00;;;;;;;;;;4939875;29;20180;-86
2023/09/07 05:48:03;;;;;;;12.13;6.43;;;;;;;;;;4940215;29;20176;-86
2023/09/07 05:51:07;;;;;;;10.53;6.83;;;;;;;;;;4938863;29;20188;-86
2023/09/07 05:54:11;;;;;;;11.53;6.93;;;;;;;;;;4939456;29;20216;-86
2023/09/07 05:57:15;;;;;;;9.93;6.63;;;;;;;;;;4917135;29;20184;-85
2023/09/07 06:00:20;;;;;;;11.17;6.97;;;;;;;;;;4928526;29;20642;-86
2023/09/07 06:03:25;;;;;;;12.97;7.87;;;;;;;;;;4928301;29;20570;-86
2023/09/07 06:06:30;;;;;;;16.10;8.93;;;;;;;;;;4889773;29;20193;-88
2023/09/07 06:09:35;;;;;;;10.20;8.63;;;;;;;;;;4889941;29;20190;-87
2023/09/07 06:12:39;;;;;;;12.80;9.07;;;;;;;;;;4890028;29;20225;-87
2023/09/07 06:15:43;;;;;;;12.67;9.83;;;;;;;;;;4899862;29;20178;-87
2023/09/07 06:18:48;;;;;;;11.43;9.57;;;;;;;;;;4899925;29;20186;-86
2023/09/07 06:21:52;;;;;;;18.57;10.07;;;;;;;;;;4908052;29;20185;-87
2023/09/07 06:24:56;;;;;;;15.13;10.70;;;;;;;;;;4890318;29;20193;-87
2023/09/07 06:28:00;;;;;;;15.27;11.17;;;;;;;;;;4889847;29;20554;-87
2023/09/07 06:31:04;;;;;;;19.43;11.13;;;;;;;;;;4912583;29;20593;-87
2023/09/07 06:34:08;;;;;;;17.77;10.93;;;;;;;;;;4909037;29;20713;-88
2023/09/07 06:37:13;;;;;;;24.33;13.17;;;;;;;;;;4915688;29;20195;-87
2023/09/07 06:40:17;;;;;;;21.30;13.50;;;;;;;;;;4937214;29;20724;-87
2023/09/07 06:43:22;;;;;;;19.77;12.13;;;;;;;;;;4915769;29;20234;-88
2023/09/07 06:46:27;;;;;;;22.47;12.57;;;;;;;;;;4926281;29;20204;-88
2023/09/07 06:49:32;;;;;;;19.83;13.07;;;;;;;;;;4926443;29;20187;-86
2023/09/07 06:52:36;;;;;;;17.27;12.57;;;;;;;;;;4925910;29;20234;-86
2023/09/07 06:55:41;;;;;;;18.43;11.37;;;;;;;;;;4911114;29;20208;-88
2023/09/07 06:58:45;;;;;;;20.20;10.97;;;;;;;;;;4906933;29;20196;-88
2023/09/07 07:01:49;;;;;;;19.23;10.23;;;;;;;;;;4906969;29;20195;-88
2023/09/07 07:04:54;;;;;;;14.17;7.83;;;;;;;;;;4917529;29;20236;-88
2023/09/07 07:07:59;;;;;;;9.53;6.90;;;;;;;;;;4907149;29;20189;-89
2023/09/07 07:11:03;;;;;;;14.77;7.03;;;;;;;;;;4917711;29;20189;-89
2023/09/07 07:14:09;;;;;;;12.57;6.10;;;;;;;;;;4917594;29;20232;-89
2023/09/07 07:17:13;;;;;;;9.30;5.27;;;;;;;;;;4917306;29;20635;-89
2023/09/07 07:20:17;;;;;;;7.40;4.87;;;;;;;;;;4917483;29;20180;-89
2023/09/07 07:23:21;;;;;;;4.10;3.70;;;;;;;;;;4917071;29;20232;-89
2023/09/07 07:26:26;;;;;;;4.63;3.80;;;;;;;;;;4917065;29;20662;-89
2023/09/07 07:29:30;;;;;;;6.13;3.83;;;;;;;;;;4906592;29;20181;-89
2023/09/07 07:32:34;;;;;;;4.50;3.97;;;;;;;;;;4906301;29;20220;-88
2023/09/07 07:35:39;;;;;;;6.77;3.63;;;;;;;;;;4916924;29;20204;-89
2023/09/07 07:38:44;;;;;;;5.37;3.57;;;;;;;;;;4916973;29;20185;-88
2023/09/07 07:41:49;;;;;;;5.23;3.73;;;;;;;;;;4906230;29;20188;-83
2023/09/07 07:44:53;;;;;;;18.30;4.50;;;;;;;;;;4916101;29;20216;-86
2023/09/07 07:47:56;;;;;;;5.07;3.30;;;;;;;;;;4906096;29;20184;-87
2023/09/07 07:51:05;;;;;;;5.57;3.40;;;;;;;;;;4906131;29;20635;-86
2023/09/07 07:54:09;;;;;;;4.53;3.40;;;;;;;;;;4916696;29;20216;-86
2023/09/07 07:57:14;;;;;;;8.47;3.23;;;;;;;;;;4905918;29;20188;-86
2023/09/07 08:00:18;;;;;;;5.77;3.43;;;;;;;;;;4905742;29;20642;-86
2023/09/07 08:03:29;;;;;;;4.67;3.93;;;;;;;;;;4919148;29;20709;-86
2023/09/07 08:06:35;;;;;;;7.00;3.50;;;;;;;;;;4887023;29;20185;-87
2023/09/07 08:09:39;;;;;;;6.30;3.63;;;;;;;;;;4900065;29;20647;-86
2023/09/07 08:12:44;;;;;;;6.03;3.33;;;;;;;;;;4916619;29;20228;-86
2023/09/07 08:15:48;;;;;;;7.40;3.77;;;;;;;;;;4905690;29;20182;-86
2023/09/07 08:18:53;;;;;;;24.60;5.40;;;;;;;;;;4916913;29;20185;-87
2023/09/07 08:21:58;;;;;;;24.70;4.73;;;;;;;;;;4906031;29;20189;-87
2023/09/07 08:25:02;;;;;;;7.73;4.43;;;;;;;;;;4916492;29;20215;-86
2023/09/07 08:28:07;;;;;;;12.60;3.80;;;;;;;;;;4916431;29;20190;-80
2023/09/07 08:31:13;;;;;;;5.03;3.20;;;;;;;;;;4916376;29;20648;-81
2023/09/07 08:34:20;;;;;;;6.30;3.10;;;;;;;;;;4916564;29;20522;-86
2023/09/07 08:37:24;;;;;;;29.10;4.63;;;;;;;;;;4917232;29;20183;-86
2023/09/07 08:40:29;;;;;;;7.70;3.20;;;;;;;;;;4916400;29;20649;-86
2023/09/07 08:43:40;;;;;;;4.37;3.17;;;;;;;;;;4917100;29;20236;-85
2023/09/07 08:46:45;;;;;;;17.03;4.10;;;;;;;;;;4905645;29;20183;-87
2023/09/07 08:49:50;;;;;;;10.68;3.20;;;;;;;;;;4916378;29;20533;-87
2023/09/07 08:52:54;;;;;;;5.28;3.20;;;;;;;;;;4916395;29;20217;-85
2023/09/07 08:56:01;;;;;;;4.55;3.40;;;;;;;;;;4918547;29;20187;-85
2023/09/07 08:59:05;;;;;;;12.27;3.08;;;;;;;;;;4909717;29;20188;-85
2023/09/07 09:02:10;;;;;;;5.05;3.40;;;;;;;;;;4909099;29;20191;-85
2023/09/07 09:05:15;;;;;;;5.80;3.00;;;;;;;;;;4909091;29;20208;-85
2023/09/07 09:08:24;;;;;;;11.38;3.50;;;;;;;;;;4909085;29;20200;-85
2023/09/07 09:11:27;;;;;;;4.80;2.85;;;;;;;;;;4919796;29;20192;-85
2023/09/07 09:14:32;;;;;;;5.13;3.20;;;;;;;;;;4920085;29;20212;-85
2023/09/07 09:17:36;;;;;;;6.38;3.13;;;;;;;;;;4919593;29;20537;-85
2023/09/07 09:20:40;;;;;;;3.65;2.97;;;;;;;;;;4909016;29;20189;-85
2023/09/07 09:23:44;;;;;;;19.55;3.78;;;;;;;;;;4919461;29;20240;-85
2023/09/07 09:26:48;;;;;;;3.08;2.60;;;;;;;;;;4919733;29;20186;-85
2023/09/07 09:29:52;;;;;;;43.33;4.95;;;;;;;;;;4908804;29;20185;-85
2023/09/07 09:32:58;;;;;;;21.60;3.60;;;;;;;;;;4919400;29;20217;-85
2023/09/07 09:36:02;;;;;;;7.22;2.85;;;;;;;;;;4908965;29;20186;-85
2023/09/07 09:39:06;;;;;;;4.03;2.83;;;;;;;;;;4908856;29;20181;-85
2023/09/07 09:42:12;;;;;;;5.90;2.92;;;;;;;;;;4919641;29;20221;-85
2023/09/07 09:45:17;;;;;;;16.25;3.97;;;;;;;;;;4919215;29;20209;-85
2023/09/07 09:48:22;;;;;;;10.77;3.95;;;;;;;;;;4919506;29;20185;-85
2023/09/07 09:51:27;;;;;;;4.82;2.65;;;;;;;;;;4920006;29;20562;-85
2023/09/07 09:54:35;;;;;;;7.10;3.20;;;;;;;;;;4908434;29;20181;-85
2023/09/07 09:57:39;;;;;;;5.80;2.60;;;;;;;;;;4908408;29;20285;-85
2023/09/07 10:00:50;;;;;;;4.38;2.55;;;;;;;;;;4919829;29;20193;-86
2023/09/07 10:03:56;;;;;;;10.45;3.00;;;;;;;;;;4908028;29;20702;-85
2023/09/07 10:07:05;;;;;;;2.80;2.55;;;;;;;;;;4918588;29;20185;-85
2023/09/07 10:10:12;;;;;;;4.50;2.90;;;;;;;;;;4919278;29;20535;-85
2023/09/07 10:13:29;;;;;;;4.78;3.20;;;;;;;;;;4919758;29;20702;-85
2023/09/07 10:16:55;;;;;;;6.85;3.47;;;;;;;;;;4907913;29;20178;-85
2023/09/07 10:20:07;;;;;;;6.53;3.70;;;;;;;;;;4919269;29;20659;-85
2023/09/07 10:23:11;;;;;;;4.25;2.67;;;;;;;;;;4918960;29;20221;-86
2023/09/07 10:26:17;;;;;;;5.93;3.10;;;;;;;;;;4907761;29;20185;-85
2023/09/07 10:29:20;;;;;;;10.43;3.30;;;;;;;;;;4919757;29;20516;-85
2023/09/07 10:32:25;;;;;;;3.35;3.00;;;;;;;;;;4914540;29;20237;-85
2023/09/07 10:35:35;;;;;;;3.75;2.72;;;;;;;;;;4917963;29;20197;-85
2023/09/07 10:38:40;;;;;;;4.25;2.90;;;;;;;;;;4919238;29;20189;-85
2023/09/07 10:41:45;;;;;;;3.00;2.70;;;;;;;;;;4907441;29;20190;-85
2023/09/07 10:44:49;;;;;;;3.78;2.45;;;;;;;;;;4907640;29;20213;-85
2023/09/07 10:47:54;;;;;;;4.10;2.60;;;;;;;;;;4898007;29;20209;-85
2023/09/07 10:50:58;;;;;;;3.22;2.92;;;;;;;;;;4899764;29;20186;-82
2023/09/07 10:54:02;;;;;;;5.97;3.25;;;;;;;;;;4899276;29;20230;-82
2023/09/07 10:57:08;;;;;;;3.17;2.88;;;;;;;;;;4899347;29;20532;-82
2023/09/07 11:00:14;;;;;;;3.22;2.92;;;;;;;;;;4900629;29;20190;-82
2023/09/07 11:03:18;;;;;;;7.57;2.90;;;;;;;;;;4899481;29;20221;-82
2023/09/07 11:06:22;;;;;;;5.50;2.85;;;;;;;;;;4899830;29;20186;-82
2023/09/07 11:09:26;;;;;;;4.38;3.05;;;;;;;;;;4899172;29;20215;-82
2023/09/07 11:12:36;;;;;;;9.77;3.35;;;;;;;;;;4900155;29;20229;-82
2023/09/07 11:15:42;;;;;;;10.38;3.05;;;;;;;;;;4900206;29;20174;-82
2023/09/07 11:18:46;;;;;;;3.33;2.45;;;;;;;;;;4899368;29;20190;-82
2023/09/07 11:21:53;;;;;;;4.43;2.70;;;;;;;;;;4899950;29;20186;-82
2023/09/07 11:25:00;;;;;;;8.20;2.97;;;;;;;;;;4909795;29;20214;-82
2023/09/07 11:28:05;;;;;;;3.83;2.40;;;;;;;;;;4899764;29;20186;-82
2023/09/07 11:31:09;;;;;;;4.82;2.78;;;;;;;;;;4899616;29;20553;-82
2023/09/07 11:34:15;;;;;;;8.70;2.50;;;;;;;;;;4899896;29;20566;-82
2023/09/07 11:37:25;;;;;;;6.35;2.80;;;;;;;;;;4899770;29;20190;-82
2023/09/07 11:40:30;;;;;;;5.28;3.33;;;;;;;;;;4898906;29;20186;-82
2023/09/07 11:43:34;;;;;;;3.53;2.60;;;;;;;;;;4898803;29;20226;-82
2023/09/07 11:46:39;;;;;;;7.80;3.10;;;;;;;;;;4898787;29;20186;-81
2023/09/07 11:49:43;;;;;;;6.18;3.40;;;;;;;;;;4898246;29;20186;-82
2023/09/07 11:52:47;;;;;;;4.95;3.15;;;;;;;;;;4899149;29;20218;-82
2023/09/07 11:55:51;;;;;;;3.28;2.88;;;;;;;;;;4899457;29;20544;-82
2023/09/07 11:58:55;;;;;;;5.25;2.90;;;;;;;;;;4898993;29;20639;-82
2023/09/07 12:02:00;;;;;;;3.63;2.70;;;;;;;;;;4899253;29;20189;-82
2023/09/07 12:05:07;;;;;;;5.07;2.80;;;;;;;;;;4899151;29;20683;-82
2023/09/07 12:08:14;;;;;;;15.73;3.45;;;;;;;;;;4899115;29;20182;-82
2023/09/07 12:11:18;;;;;;;15.73;3.40;;;;;;;;;;4887605;29;20204;-82
2023/09/07 12:14:23;;;;;;;6.88;2.85;;;;;;;;;;4898993;29;20209;-82
2023/09/07 12:17:27;;;;;;;8.77;2.97;;;;;;;;;;4898997;29;20194;-82
2023/09/07 12:20:31;;;;;;;29.38;4.45;;;;;;;;;;4898649;29;20186;-82
2023/09/07 12:23:35;;;;;;;53.25;4.90;;;;;;;;;;4897926;29;20222;-82
2023/09/07 12:26:39;;;;;;;6.22;2.75;;;;;;;;;;4898819;29;20213;-82
2023/09/07 12:29:43;;;;;;;4.03;2.17;;;;;;;;;;4898167;29;20186;-82
2023/09/07 12:32:47;;;;;;;6.55;2.60;;;;;;;;;;4899196;29;20221;-82
2023/09/07 12:35:51;;;;;;;10.57;3.20;;;;;;;;;;4899426;29;20186;-82
2023/09/07 12:39:01;;;;;;;4.10;2.78;;;;;;;;;;4899329;29;20194;-82
2023/09/07 12:42:05;;;;;;;4.63;2.63;;;;;;;;;;4898992;29;20178;-82
2023/09/07 12:45:14;;;;;;;5.15;3.35;;;;;;;;;;4898935;29;20217;-82
2023/09/07 12:48:20;;;;;;;6.03;2.42;;;;;;;;;;4899005;29;20174;-82
2023/09/07 12:51:24;;;;;;;6.00;2.80;;;;;;;;;;4899087;29;20186;-82
2023/09/07 12:54:28;;;;;;;3.90;2.80;;;;;;;;;;4898698;29;20181;-82
2023/09/07 12:57:32;;;;;;;7.35;2.97;;;;;;;;;;4898101;29;20182;-81
2023/09/07 13:00:36;;;;;;;32.95;4.55;;;;;;;;;;4899243;29;20190;-82
2023/09/07 13:03:41;;;;;;;5.25;2.90;;;;;;;;;;4898706;29;20233;-82
2023/09/07 13:06:45;;;;;;;10.40;3.42;;;;;;;;;;4898320;29;20213;-87
2023/09/07 13:09:49;;;;;;;5.15;2.92;;;;;;;;;;4887141;29;20190;-87
2023/09/07 13:12:53;;;;;;;10.48;3.10;;;;;;;;;;4886596;29;20226;-87
2023/09/07 13:15:58;;;;;;;4.78;2.92;;;;;;;;;;4886889;29;20182;-87
2023/09/07 13:19:02;;;;;;;4.70;2.80;;;;;;;;;;4897685;29;20186;-87
2023/09/07 13:22:07;;;;;;;5.65;2.72;;;;;;;;;;4886838;29;20190;-87
2023/09/07 13:25:11;;;;;;;2.90;2.50;;;;;;;;;;4897191;29;20221;-87
2023/09/07 13:28:15;;;;;;;26.30;3.63;;;;;;;;;;4886719;29;20536;-87
2023/09/07 13:31:19;;;;;;;3.83;2.45;;;;;;;;;;4898199;29;20186;-87
2023/09/07 13:34:23;;;;;;;3.50;3.05;;;;;;;;;;4897337;29;20186;-87
2023/09/07 13:37:27;;;;;;;5.10;2.90;;;;;;;;;;4897386;29;20182;-87
2023/09/07 13:40:31;;;;;;;4.68;2.83;;;;;;;;;;4897872;29;20197;-87
2023/09/07 13:43:35;;;;;;;5.78;3.00;;;;;;;;;;4899094;29;20230;-87
2023/09/07 13:46:39;;;;;;;4.00;3.15;;;;;;;;;;4900367;29;20214;-87
2023/09/07 13:49:43;;;;;;;4.03;2.90;;;;;;;;;;4889769;29;20189;-87
2023/09/07 13:52:48;;;;;;;4.63;3.08;;;;;;;;;;4901249;29;20225;-87
2023/09/07 13:55:52;;;;;;;5.07;2.85;;;;;;;;;;4889536;29;20186;-87
2023/09/07 13:58:56;;;;;;;4.05;2.55;;;;;;;;;;4900654;29;20186;-87
2023/09/07 14:02:00;;;;;;;3.72;2.90;;;;;;;;;;4900325;29;20186;-87
2023/09/07 14:05:04;;;;;;;6.55;2.53;;;;;;;;;;4900778;29;20186;-87
2023/09/07 14:08:08;;;;;;;4.13;3.30;;;;;;;;;;4889630;29;20639;-87
2023/09/07 14:11:13;;;;;;;10.13;2.97;;;;;;;;;;4911591;29;20185;-87
2023/09/07 14:14:17;;;;;;;4.85;2.60;;;;;;;;;;4889950;29;20217;-87
2023/09/07 14:17:21;;;;;;;4.80;2.92;;;;;;;;;;4899984;29;20640;-87
2023/09/07 14:20:25;;;;;;;6.45;3.05;;;;;;;;;;4889697;29;20185;-87
2023/09/07 14:23:30;;;;;;;10.93;3.35;;;;;;;;;;4910486;29;20325;-86
2023/09/07 14:26:34;;;;;;;5.70;3.05;;;;;;;;;;4889442;29;20218;-87
2023/09/07 14:29:38;;;;;;;18.15;3.88;;;;;;;;;;4899755;29;20182;-86
2023/09/07 14:32:42;;;;;;;4.28;2.88;;;;;;;;;;4900565;29;20599;-87
2023/09/07 14:35:46;;;;;;;3.97;2.83;;;;;;;;;;4899922;29;20178;-87
2023/09/07 14:38:51;;;;;;;5.65;2.67;;;;;;;;;;4900992;29;20194;-87
2023/09/07 14:41:55;;;;;;;4.80;2.97;;;;;;;;;;4899806;29;20197;-87
2023/09/07 14:45:01;;;;;;;6.97;3.40;;;;;;;;;;4888791;29;20189;-87
2023/09/07 14:48:06;;;;;;;4.32;2.83;;;;;;;;;;4889348;29;20182;-87
2023/09/07 14:51:10;;;;;;;6.32;3.30;;;;;;;;;;4899316;29;20193;-86
2023/09/07 14:54:14;;;;;;;3.95;3.03;;;;;;;;;;4887965;29;20222;-89
2023/09/07 14:57:18;;;;;;;23.40;3.97;;;;;;;;;;4888611;29;20181;-87
2023/09/07 15:00:22;;;;;;;24.75;4.07;;;;;;;;;;4899431;29;20521;-87
2023/09/07 15:03:26;;;;;;;7.30;2.90;;;;;;;;;;4899143;29;20229;-87
2023/09/07 15:06:33;;;;;;;3.70;2.97;;;;;;;;;;4899378;29;20217;-87
2023/09/07 15:09:36;;;;;;;3.20;2.78;;;;;;;;;;4899224;29;20626;-87
2023/09/07 15:12:41;;;;;;;58.55;6.93;;;;;;;;;;4899282;29;20225;-87
2023/09/07 15:15:45;;;;;;;6.93;3.65;;;;;;;;;;4898706;29;20184;-87
2023/09/07 15:18:51;;;;;;;5.82;3.75;;;;;;;;;;4899259;29;20189;-86
2023/09/07 15:21:55;;;;;;;6.00;3.00;;;;;;;;;;4900237;29;20530;-87
2023/09/07 15:25:00;;;;;;;8.35;3.00;;;;;;;;;;4899814;29;20285;-87
2023/09/07 15:28:08;;;;;;;5.20;2.90;;;;;;;;;;4898890;29;20181;-87
2023/09/07 15:31:12;;;;;;;3.85;3.13;;;;;;;;;;4898670;29;20192;-87
2023/09/07 15:34:16;;;;;;;8.98;3.33;;;;;;;;;;4888008;29;20191;-87
2023/09/07 15:37:20;;;;;;;7.82;3.17;;;;;;;;;;4898287;29;20184;-87
2023/09/07 15:40:24;;;;;;;5.53;3.00;;;;;;;;;;4898829;29;20646;-87
2023/09/07 15:43:28;;;;;;;18.52;4.63;;;;;;;;;;4898375;29;20541;-86
2023/09/07 15:46:32;;;;;;;31.40;5.00;;;;;;;;;;4887753;29;20219;-87
2023/09/07 15:49:36;;;;;;;6.90;3.55;;;;;;;;;;4887843;29;20188;-87
2023/09/07 15:52:46;;;;;;;5.45;3.72;;;;;;;;;;4898221;29;20224;-87
2023/09/07 15:55:50;;;;;;;5.43;3.35;;;;;;;;;;4888159;29;20183;-87
2023/09/07 15:58:54;;;;;;;6.20;3.05;;;;;;;;;;4898298;29;20558;-87
2023/09/07 16:01:58;;;;;;;3.92;3.22;;;;;;;;;;4887630;29;20191;-87
2023/09/07 16:05:03;;;;;;;7.88;3.03;;;;;;;;;;4887309;29;20193;-81
2023/09/07 16:08:07;;;;;;;5.18;3.28;;;;;;;;;;4899884;29;20183;-83
2023/09/07 16:11:11;;;;;;;7.50;3.33;;;;;;;;;;4900821;29;20188;-84
2023/09/07 16:14:16;;;;;;;5.97;3.35;;;;;;;;;;4900047;29;20231;-83
2023/09/07 16:17:20;;;;;;;5.57;3.17;;;;;;;;;;4899127;29;20180;-84
2023/09/07 16:20:24;;;;;;;14.15;3.47;;;;;;;;;;4899276;29;20195;-84
2023/09/07 16:23:28;;;;;;;11.75;3.40;;;;;;;;;;4900786;29;20293;-84
2023/09/07 16:26:33;;;;;;;6.30;3.28;;;;;;;;;;4900148;29;20217;-84
2023/09/07 16:29:37;;;;;;;48.13;6.13;;;;;;;;;;4899200;29;20182;-84
2023/09/07 16:32:44;;;;;;;21.55;4.95;;;;;;;;;;4900352;29;20326;-84
2023/09/07 16:35:48;;;;;;;62.28;6.15;;;;;;;;;;4899596;29;20190;-82
2023/09/07 16:38:52;;;;;;;26.40;4.30;;;;;;;;;;4900084;29;20182;-82
2023/09/07 16:41:56;;;;;;;7.18;3.38;;;;;;;;;;4900120;29;20523;-82
2023/09/07 16:45:01;;;;;;;6.38;3.47;;;;;;;;;;4901464;29;20187;-84
2023/09/07 16:48:05;;;;;;;33.35;4.72;;;;;;;;;;4901544;29;20213;-84
2023/09/07 16:51:09;;;;;;;65.60;6.13;;;;;;;;;;4901835;29;20189;-84
2023/09/07 16:54:13;;;;;;;15.70;3.90;;;;;;;;;;4889661;29;20229;-84
2023/09/07 16:57:18;;;;;;;7.63;3.53;;;;;;;;;;4902058;29;20184;-84
2023/09/07 17:00:22;;;;;;;6.20;3.60;;;;;;;;;;4901181;29;20536;-84
2023/09/07 17:03:26;;;;;;;5.53;3.67;;;;;;;;;;4901989;29;20711;-84
2023/09/07 17:06:30;;;;;;;5.27;4.00;;;;;;;;;;4908042;29;20222;-84
2023/09/07 17:09:35;;;;;;;8.47;4.90;;;;;;;;;;4920065;29;20182;-84
2023/09/07 17:12:40;;;;;;;9.97;4.73;;;;;;;;;;4920442;29;20229;-84
2023/09/07 17:15:50;;;;;;;13.77;5.13;;;;;;;;;;4919615;29;20186;-84
2023/09/07 17:18:56;;;;;;;7.10;4.63;;;;;;;;;;4924126;29;20184;-84
2023/09/07 17:22:00;;;;;;;19.67;5.37;;;;;;;;;;4922497;29;20189;-86
2023/09/07 17:25:05;;;;;;;11.17;4.30;;;;;;;;;;4923175;29;20186;-84
2023/09/07 17:28:09;;;;;;;6.80;3.97;;;;;;;;;;4922922;29;20220;-84
2023/09/07 17:31:14;;;;;;;9.80;3.80;;;;;;;;;;4923648;29;20636;-84
2023/09/07 17:34:18;;;;;;;4.97;3.73;;;;;;;;;;4923161;29;20183;-84
2023/09/07 17:37:23;;;;;;;4.67;3.63;;;;;;;;;;4922087;29;20186;-84
2023/09/07 17:40:27;;;;;;;8.20;4.07;;;;;;;;;;4923423;29;20190;-84
2023/09/07 17:43:31;;;;;;;4.13;3.73;;;;;;;;;;4922285;29;20227;-84
2023/09/07 17:46:36;;;;;;;6.43;4.33;;;;;;;;;;4922487;29;20209;-84
2023/09/07 17:49:40;;;;;;;7.00;4.00;;;;;;;;;;4922687;29;20548;-84
2023/09/07 17:52:44;;;;;;;7.60;4.00;;;;;;;;;;4912221;29;20217;-84
2023/09/07 17:55:48;;;;;;;5.87;3.80;;;;;;;;;;4924119;29;20189;-84
2023/09/07 17:58:52;;;;;;;6.40;3.63;;;;;;;;;;4923916;29;20181;-84
2023/09/07 18:01:56;;;;;;;5.63;4.00;;;;;;;;;;4923386;29;20185;-84
2023/09/07 18:05:01;;;;;;;5.37;3.57;;;;;;;;;;4922670;29;20535;-84
2023/09/07 18:08:05;;;;;;;7.07;4.53;;;;;;;;;;4923089;29;20213;-84
2023/09/07 18:11:09;;;;;;;7.10;3.87;;;;;;;;;;4923559;29;20647;-84
2023/09/07 18:14:14;;;;;;;5.43;3.80;;;;;;;;;;4923840;29;20232;-84
2023/09/07 18:17:17;;;;;;;6.13;4.30;;;;;;;;;;4923249;29;20536;-84
2023/09/07 18:20:22;;;;;;;6.87;4.13;;;;;;;;;;4922937;29;20181;-84
2023/09/07 18:23:26;;;;;;;6.93;4.30;;;;;;;;;;4922293;29;20224;-84